Time;durP1;ratioP1;P1;durP2;ratioP2;P2;SDS_P1;SDS_P2;PMS_P1;PMS_P2;Temp;Humidity;BMP_temperature;BMP_pressure;BME280_temperature;BME280_humidity;BME280_pressure;Samples;Min_cycle;Max_cycle;Signal;HPM_P1;HPM_P2
2023/12/19 00:01:25;;;;;;;8.2;5.7;;;;;;;;;;;;;
2023/12/19 00:03:55;;;;;;;10.3;6.2;;;;;;;;;;;;;
2023/12/19 00:06:24;;;;;;;10.6;6;;;;;;;;;;;;;
2023/12/19 00:08:51;;;;;;;10.5;5.8;;;;;;;;;;;;;
2023/12/19 00:11:25;;;;;;;7.8;5.6;;;;;;;;;;;;;
2023/12/19 00:13:53;;;;;;;10.2;6.4;;;;;;;;;;;;;
2023/12/19 00:16:18;;;;;;;9.9;6.3;;;;;;;;;;;;;
2023/12/19 00:18:52;;;;;;;7;5.1;;;;;;;;;;;;;
2023/12/19 00:21:20;;;;;;;8.1;5.3;;;;;;;;;;;;;
2023/12/19 00:23:45;;;;;;;10.2;6.3;;;;;;;;;;;;;
2023/12/19 00:26:10;;;;;;;7.8;5.6;;;;;;;;;;;;;
2023/12/19 00:28:36;;;;;;;8.7;5.8;;;;;;;;;;;;;
2023/12/19 00:31:01;;;;;;;17.4;9.3;;;;;;;;;;;;;
2023/12/19 00:33:27;;;;;;;47.6;20.8;;;;;;;;;;;;;
2023/12/19 00:35:57;;;;;;;18.8;10.2;;;;;;;;;;;;;
2023/12/19 00:38:24;;;;;;;10.5;6.4;;;;;;;;;;;;;
2023/12/19 00:40:49;;;;;;;9.5;5.8;;;;;;;;;;;;;
2023/12/19 00:43:17;;;;;;;8;5.5;;;;;;;;;;;;;
2023/12/19 00:45:42;;;;;;;9.4;5;;;;;;;;;;;;;
2023/12/19 00:48:07;;;;;;;8.2;5;;;;;;;;;;;;;
2023/12/19 00:50:32;;;;;;;10.5;5.4;;;;;;;;;;;;;
2023/12/19 00:53:04;;;;;;;8.2;5.6;;;;;;;;;;;;;
2023/12/19 00:55:37;;;;;;;7.2;5;;;;;;;;;;;;;
2023/12/19 00:58:04;;;;;;;7.7;4.9;;;;;;;;;;;;;
2023/12/19 01:00:29;;;;;;;8.7;5.1;;;;;;;;;;;;;
2023/12/19 01:03:00;;;;;;;9.4;4.9;;;;;;;;;;;;;
2023/12/19 01:05:30;;;;;;;10;5.6;;;;;;;;;;;;;
2023/12/19 01:07:55;;;;;;;7.9;5.1;;;;;;;;;;;;;
2023/12/19 01:10:27;;;;;;;8.8;4.9;;;;;;;;;;;;;
2023/12/19 01:12:56;;;;;;;7.7;4.2;;;;;;;;;;;;;
2023/12/19 01:15:22;;;;;;;6.4;3.9;;;;;;;;;;;;;
2023/12/19 01:17:48;;;;;;;5.5;3.2;;;;;;;;;;;;;
2023/12/19 01:20:15;;;;;;;5.2;3.1;;;;;;;;;;;;;
2023/12/19 01:22:43;;;;;;;3;2.3;;;;;;;;;;;;;
2023/12/19 01:25:09;;;;;;;3;2.1;;;;;;;;;;;;;
2023/12/19 01:27:36;;;;;;;2.5;1.8;;;;;;;;;;;;;
2023/12/19 01:30:01;;;;;;;2.7;2.4;;;;;;;;;;;;;
2023/12/19 01:32:29;;;;;;;3.4;2.3;;;;;;;;;;;;;
2023/12/19 01:34:54;;;;;;;3;2.3;;;;;;;;;;;;;
2023/12/19 01:37:26;;;;;;;4.5;2.8;;;;;;;;;;;;;
2023/12/19 01:39:56;;;;;;;6.2;3.8;;;;;;;;;;;;;
2023/12/19 01:42:27;;;;;;;5.1;3.3;;;;;;;;;;;;;
2023/12/19 01:44:53;;;;;;;4.9;3;;;;;;;;;;;;;
2023/12/19 01:47:18;;;;;;;4.5;2.8;;;;;;;;;;;;;
2023/12/19 01:49:45;;;;;;;5.7;3.1;;;;;;;;;;;;;
2023/12/19 01:52:10;;;;;;;5.5;3.1;;;;;;;;;;;;;
2023/12/19 01:54:37;;;;;;;3.7;2.6;;;;;;;;;;;;;
2023/12/19 01:57:00;;;;;;;3.9;2.4;;;;;;;;;;;;;
2023/12/19 01:59:28;;;;;;;3.3;2.5;;;;;;;;;;;;;
2023/12/19 02:01:53;;;;;;;4.4;2.6;;;;;;;;;;;;;
2023/12/19 02:04:22;;;;;;;3.4;2.3;;;;;;;;;;;;;
2023/12/19 02:06:47;;;;;;;3.4;2.4;;;;;;;;;;;;;
2023/12/19 02:09:13;;;;;;;5.1;2.8;;;;;;;;;;;;;
2023/12/19 02:11:38;;;;;;;3;2.1;;;;;;;;;;;;;
2023/12/19 02:14:05;;;;;;;3;2.2;;;;;;;;;;;;;
2023/12/19 02:16:30;;;;;;;4.8;2;;;;;;;;;;;;;
2023/12/19 02:18:58;;;;;;;2.9;2.3;;;;;;;;;;;;;
2023/12/19 02:21:23;;;;;;;3.9;2.6;;;;;;;;;;;;;
2023/12/19 02:23:52;;;;;;;2.6;2.3;;;;;;;;;;;;;
2023/12/19 02:26:21;;;;;;;3.7;2.5;;;;;;;;;;;;;
2023/12/19 02:28:52;;;;;;;3.3;2.3;;;;;;;;;;;;;
2023/12/19 02:31:12;;;;;;;3.2;2.3;;;;;;;;;;;;;
2023/12/19 02:33:40;;;;;;;4;2.3;;;;;;;;;;;;;
2023/12/19 02:36:04;;;;;;;3.1;2.2;;;;;;;;;;;;;
2023/12/19 02:38:32;;;;;;;2.4;2.1;;;;;;;;;;;;;
2023/12/19 02:40:57;;;;;;;2.8;2.3;;;;;;;;;;;;;
2023/12/19 02:43:26;;;;;;;7.3;3.5;;;;;;;;;;;;;
2023/12/19 02:45:54;;;;;;;7.3;3;;;;;;;;;;;;;
2023/12/19 02:48:19;;;;;;;6.1;3.5;;;;;;;;;;;;;
2023/12/19 02:50:45;;;;;;;6;3.1;;;;;;;;;;;;;
2023/12/19 02:53:10;;;;;;;4.7;2.6;;;;;;;;;;;;;
2023/12/19 02:55:37;;;;;;;7.9;3.5;;;;;;;;;;;;;
2023/12/19 02:58:02;;;;;;;14.3;5;;;;;;;;;;;;;
2023/12/19 03:00:30;;;;;;;6.5;3.6;;;;;;;;;;;;;
2023/12/19 03:02:58;;;;;;;4.8;2.8;;;;;;;;;;;;;
2023/12/19 03:05:20;;;;;;;8.2;5;;;;;;;;;;;;;
2023/12/19 03:07:48;;;;;;;10.2;4.2;;;;;;;;;;;;;
2023/12/19 03:10:13;;;;;;;14.2;5.6;;;;;;;;;;;;;
2023/12/19 03:12:40;;;;;;;7.6;3.5;;;;;;;;;;;;;
2023/12/19 03:15:05;;;;;;;6.5;2.9;;;;;;;;;;;;;
2023/12/19 03:17:30;;;;;;;3.5;2.5;;;;;;;;;;;;;
2023/12/19 03:19:55;;;;;;;3.2;2.6;;;;;;;;;;;;;
2023/12/19 03:22:23;;;;;;;3.2;2.2;;;;;;;;;;;;;
2023/12/19 03:24:48;;;;;;;3.5;2.4;;;;;;;;;;;;;
2023/12/19 03:27:13;;;;;;;3.6;2.3;;;;;;;;;;;;;
2023/12/19 03:29:38;;;;;;;2.1;1.7;;;;;;;;;;;;;
2023/12/19 03:32:05;;;;;;;2.3;1.7;;;;;;;;;;;;;
2023/12/19 03:34:29;;;;;;;2.1;1.4;;;;;;;;;;;;;
2023/12/19 03:36:58;;;;;;;2.1;1.4;;;;;;;;;;;;;
2023/12/19 03:39:23;;;;;;;2.7;1.8;;;;;;;;;;;;;
2023/12/19 03:41:51;;;;;;;2;1.8;;;;;;;;;;;;;
2023/12/19 03:44:16;;;;;;;2.1;1.6;;;;;;;;;;;;;
2023/12/19 03:46:41;;;;;;;2.7;1.9;;;;;;;;;;;;;
2023/12/19 03:49:07;;;;;;;1.9;1.5;;;;;;;;;;;;;
2023/12/19 03:51:33;;;;;;;1.7;1.5;;;;;;;;;;;;;
2023/12/19 03:53:58;;;;;;;1.6;1.3;;;;;;;;;;;;;
2023/12/19 03:56:23;;;;;;;1.9;1.4;;;;;;;;;;;;;
2023/12/19 03:58:48;;;;;;;2.1;1.5;;;;;;;;;;;;;
2023/12/19 04:02:50;;;;;;;2.3;1.7;;;;;;;1.64;86.20801;948.2244;;;;
2023/12/19 04:05:27;;;;;;;2;1.7;;;;;;;1.51;86.34961;948.2468;;;;
2023/12/19 04:07:56;;;;;;;3;1.9;;;;;;;1.48;86.35547;948.1959;;;;
2023/12/19 04:10:23;;;;;;;3;1.9;;;;;;;1.49;86.45801;948.2059;;;;
2023/12/19 04:12:52;;;;;;;3;2.2;;;;;;;1.51;86.2373;948.247;;;;
2023/12/19 04:15:23;;;;;;;2.1;1.9;;;;;;;1.49;86.27832;948.3187;;;;
2023/12/19 04:17:50;;;;;;;2.9;1.6;;;;;;;1.45;86.50391;948.4035;;;;
2023/12/19 04:20:20;;;;;;;2.2;1.6;;;;;;;1.42;86.61035;948.4645;;;;
2023/12/19 04:22:46;;;;;;;3.1;1.9;;;;;;;1.36;87.24609;948.5503;;;;
2023/12/19 04:25:17;;;;;;;2.8;2.1;;;;;;;1.47;86.82129;948.585;;;;
2023/12/19 04:27:45;;;;;;;2.2;2;;;;;;;1.46;86.93066;948.6041;;;;
2023/12/19 04:30:16;;;;;;;2.4;1.7;;;;;;;1.51;86.94238;948.5538;;;;
2023/12/19 04:32:42;;;;;;;2.1;1.9;;;;;;;1.55;87.0498;948.5563;;;;
2023/12/19 04:35:22;;;;;;;2.6;1.7;;;;;;;1.55;87.03906;948.4818;;;;
2023/12/19 04:37:53;;;;;;;1.7;1.4;;;;;;;1.53;86.78906;948.4005;;;;
2023/12/19 04:40:21;;;;;;;2.2;1.5;;;;;;;1.57;86.60645;948.3311;;;;
2023/12/19 04:42:46;;;;;;;2.1;1.5;;;;;;;1.49;86.69238;948.2852;;;;
2023/12/19 04:45:17;;;;;;;1.6;1.5;;;;;;;1.59;86.42188;948.2415;;;;
2023/12/19 04:47:42;;;;;;;2.1;1.9;;;;;;;1.61;86.12207;948.2522;;;;
2023/12/19 04:50:17;;;;;;;2.1;1.8;;;;;;;1.61;85.99902;948.2569;;;;
2023/12/19 04:52:42;;;;;;;2.1;1.8;;;;;;;1.55;86.3457;948.1788;;;;
2023/12/19 04:55:21;;;;;;;2.3;2;;;;;;;1.65;86.01953;948.2256;;;;
2023/12/19 04:57:47;;;;;;;1.4;1.3;;;;;;;1.59;85.94141;948.1306;;;;
2023/12/19 05:00:15;;;;;;;1.9;1.4;;;;;;;1.61;86.0918;948.1481;;;;
2023/12/19 05:02:45;;;;;;;1.6;1.3;;;;;;;1.53;86.56543;948.1588;;;;
2023/12/19 05:05:19;;;;;;;1.5;1.4;;;;;;;1.46;86.4834;948.0884;;;;
2023/12/19 05:07:47;;;;;;;1.9;1.7;;;;;;;1.42;86.46484;948.0659;;;;
2023/12/19 05:10:15;;;;;;;2.9;2.3;;;;;;;1.41;86.92188;948.0992;;;;
2023/12/19 05:12:48;;;;;;;3;2.3;;;;;;;1.41;86.96484;947.9881;;;;
2023/12/19 05:15:17;;;;;;;8.3;4.4;;;;;;;1.28;87.86816;948.0408;;;;
2023/12/19 05:17:45;;;;;;;16.9;7.8;;;;;;;1.24;87.95703;948.038;;;;
2023/12/19 05:20:18;;;;;;;7.6;4.5;;;;;;;1.25;87.80469;948.0453;;;;
2023/12/19 05:22:46;;;;;;;6.1;3.2;;;;;;;1.31;87.22559;948.0034;;;;
2023/12/19 05:25:13;;;;;;;4.1;3;;;;;;;1.31;86.83203;947.9827;;;;
2023/12/19 05:27:43;;;;;;;5;2.9;;;;;;;1.43;86.32324;947.9936;;;;
2023/12/19 05:30:09;;;;;;;9.1;5.2;;;;;;;1.42;85.77246;948.048;;;;
2023/12/19 05:32:36;;;;;;;6.5;4;;;;;;;1.2;86.09473;948.0607;;;;
2023/12/19 05:35:01;;;;;;;4;2.7;;;;;;;1.13;86.58496;948.0433;;;;
2023/12/19 05:37:34;;;;;;;3.5;2.2;;;;;;;1.18;86.8418;948.03;;;;
2023/12/19 05:40:07;;;;;;;3.4;2;;;;;;;1.13;87.32031;947.9881;;;;
2023/12/19 05:42:31;;;;;;;2.6;1.9;;;;;;;1.16;87.31641;947.994;;;;
2023/12/19 05:45:33;;;;;;;2.8;1.9;;;;;;;1.18;87.42285;947.9939;;;;
2023/12/19 05:47:58;;;;;;;2.8;1.9;;;;;;;1.23;87.54199;947.9119;;;;
2023/12/19 05:50:28;;;;;;;2.9;1.7;;;;;;;1.25;87.25488;947.9838;;;;
2023/12/19 05:52:53;;;;;;;2.6;2;;;;;;;1.24;87.23047;948.0208;;;;
2023/12/19 05:55:18;;;;;;;3.4;2.1;;;;;;;1.26;87.33691;948.0522;;;;
2023/12/19 05:57:47;;;;;;;3.8;2.4;;;;;;;1.27;87.53809;947.9959;;;;
2023/12/19 06:00:15;;;;;;;5.8;3.7;;;;;;;1.29;87.29785;948.1403;;;;
2023/12/19 06:02:40;;;;;;;15.1;9.5;;;;;;;1.31;87.28125;948.1588;;;;
2023/12/19 06:05:11;;;;;;;11.6;7.2;;;;;;;1.34;86.70605;948.2007;;;;
2023/12/19 06:07:37;;;;;;;12.5;7.3;;;;;;;1.28;87.28516;948.1409;;;;
2023/12/19 06:10:06;;;;;;;11.8;7.8;;;;;;;1.48;86.27539;948.2481;;;;
2023/12/19 06:12:31;;;;;;;17.9;12.7;;;;;;;1.39;86.35742;948.2766;;;;
2023/12/19 06:15:00;;;;;;;17.1;12.1;;;;;;;1.25;86.70996;948.3214;;;;
2023/12/19 06:17:25;;;;;;;15.1;10.2;;;;;;;1.17;86.89355;948.2952;;;;
2023/12/19 06:19:50;;;;;;;13.9;9.3;;;;;;;1.13;87.19922;948.2827;;;;
2023/12/19 06:22:17;;;;;;;13.9;8.8;;;;;;;1.28;86.8623;948.2458;;;;
2023/12/19 06:24:45;;;;;;;11.4;7.7;;;;;;;1.13;87.33105;948.2438;;;;
2023/12/19 06:27:08;;;;;;;8.7;6.3;;;;;;;1.11;87.38379;948.0543;;;;
2023/12/19 06:29:38;;;;;;;26.4;14.5;;;;;;;1.14;87.55664;948.1111;;;;
2023/12/19 06:32:10;;;;;;;25.1;15.5;;;;;;;1;87.94336;948.1523;;;;
2023/12/19 06:34:39;;;;;;;16.9;9.8;;;;;;;1.13;87.4541;948.0916;;;;
2023/12/19 06:37:07;;;;;;;14.9;9.1;;;;;;;0.88;88.58691;948.0634;;;;
2023/12/19 06:39:31;;;;;;;26.2;13.4;;;;;;;0.94;88.70996;948.057;;;;
2023/12/19 06:41:57;;;;;;;18.3;10.6;;;;;;;1.07;88.50391;948.0637;;;;
2023/12/19 06:44:27;;;;;;;22.1;11.8;;;;;;;1.03;88.69727;948.0105;;;;
2023/12/19 06:46:52;;;;;;;28.3;14.8;;;;;;;0.95;89.08203;947.9724;;;;
2023/12/19 06:49:19;;;;;;;20.7;12.5;;;;;;;1.04;88.90039;947.9494;;;;
2023/12/19 06:51:48;;;;;;;13.5;9.2;;;;;;;0.98;88.75293;947.9281;;;;
2023/12/19 06:54:13;;;;;;;13;8.9;;;;;;;1.03;88.83105;947.9217;;;;
2023/12/19 06:56:42;;;;;;;13.2;9.5;;;;;;;1.12;88.44824;947.8858;;;;
2023/12/19 06:59:13;;;;;;;16.6;11.3;;;;;;;1.22;87.9873;947.9494;;;;
2023/12/19 07:01:37;;;;;;;18.5;12;;;;;;;1.25;87.58105;947.8717;;;;
2023/12/19 07:04:03;;;;;;;14.5;9.6;;;;;;;1.2;87.57129;947.8982;;;;
2023/12/19 07:06:27;;;;;;;11.3;8.3;;;;;;;1.13;87.69043;947.8965;;;;
2023/12/19 07:08:54;;;;;;;9.5;5.7;;;;;;;1.13;87.37793;947.9398;;;;
2023/12/19 07:11:19;;;;;;;7.8;4.7;;;;;;;1.12;87.40918;948.0112;;;;
2023/12/19 07:13:44;;;;;;;16.4;8.9;;;;;;;1.15;87.53613;948.005;;;;
2023/12/19 07:16:09;;;;;;;19.5;11.9;;;;;;;1.11;87.2832;947.9335;;;;
2023/12/19 07:18:39;;;;;;;20.2;11.2;;;;;;;1.12;87.44336;947.995;;;;
2023/12/19 07:21:04;;;;;;;15.6;8.6;;;;;;;1.2;87.29004;948.0786;;;;
2023/12/19 07:23:31;;;;;;;10.6;6.7;;;;;;;1.27;86.92383;948.0917;;;;
2023/12/19 07:25:58;;;;;;;14.5;8.1;;;;;;;1.1;87.46191;948.0697;;;;
2023/12/19 07:28:21;;;;;;;16.8;9.6;;;;;;;1.09;87.48926;948.0672;;;;
2023/12/19 07:30:48;;;;;;;11.5;7.7;;;;;;;1.21;87.03516;947.9833;;;;
2023/12/19 07:33:13;;;;;;;9.8;6.7;;;;;;;1.17;87.2627;948.0369;;;;
2023/12/19 07:35:43;;;;;;;8.5;6.2;;;;;;;1.22;87.29395;948.008;;;;
2023/12/19 07:38:08;;;;;;;10.2;6.8;;;;;;;1.2;87.38184;947.9537;;;;
2023/12/19 07:40:38;;;;;;;10.9;7.2;;;;;;;1.21;87.31641;947.9568;;;;
2023/12/19 07:43:07;;;;;;;10.2;7;;;;;;;1.21;87.41504;947.8602;;;;
2023/12/19 07:45:34;;;;;;;8.2;6.2;;;;;;;1.15;87.64941;947.9158;;;;
2023/12/19 07:48:04;;;;;;;14.5;11.1;;;;;;;1.13;88.26074;947.8745;;;;
2023/12/19 07:50:29;;;;;;;18.7;13.9;;;;;;;1.15;88.80078;947.8491;;;;
2023/12/19 07:52:54;;;;;;;15.8;11.8;;;;;;;1.24;88.32813;947.9012;;;;
2023/12/19 07:55:23;;;;;;;13.5;10.2;;;;;;;1.27;87.95313;947.8764;;;;
2023/12/19 07:57:54;;;;;;;14;9.1;;;;;;;1.38;87.18262;947.8419;;;;
2023/12/19 08:00:24;;;;;;;13.8;9.4;;;;;;;1.32;87.06934;947.8264;;;;
2023/12/19 08:02:53;;;;;;;13.3;7.7;;;;;;;1.4;86.83984;947.7314;;;;
2023/12/19 08:05:15;;;;;;;11.9;7.4;;;;;;;1.33;87.16211;947.7056;;;;
2023/12/19 08:07:43;;;;;;;16.8;11.1;;;;;;;1.41;86.6084;947.6534;;;;
2023/12/19 08:10:08;;;;;;;16.1;11.1;;;;;;;1.57;86.58398;947.5355;;;;
2023/12/19 08:12:38;;;;;;;13.7;10.6;;;;;;;1.97;86.52148;947.4531;;;;
2023/12/19 08:15:12;;;;;;;13.6;10.5;;;;;;;2.84;83.94043;947.3831;;;;
2023/12/19 08:17:39;;;;;;;13.7;9.8;;;;;;;3.6;79.6875;947.3494;;;;
2023/12/19 08:20:10;;;;;;;10.4;7.6;;;;;;;4.34;77.06738;947.2411;;;;
2023/12/19 08:22:38;;;;;;;9.1;7.3;;;;;;;4.99;74.05176;947.2267;;;;
2023/12/19 08:25:04;;;;;;;10.4;7.6;;;;;;;5.63;71.72559;947.226;;;;
2023/12/19 08:27:35;;;;;;;10.4;8;;;;;;;5.99;70.03223;947.1161;;;;
2023/12/19 08:29:57;;;;;;;10.2;7.8;;;;;;;6.3;68.11816;947.1287;;;;
2023/12/19 08:32:27;;;;;;;8.6;6.6;;;;;;;6.53;67.72461;947.1183;;;;
2023/12/19 08:34:53;;;;;;;7.6;5.4;;;;;;;6.93;66.58594;947.0878;;;;
2023/12/19 08:37:22;;;;;;;6.9;4.7;;;;;;;7.26;64.36133;946.9478;;;;
2023/12/19 08:39:56;;;;;;;5.6;4.6;;;;;;;7.72;62.59277;946.9548;;;;
2023/12/19 08:42:16;;;;;;;6.7;4.7;;;;;;;8.09;61.29492;946.9391;;;;
2023/12/19 08:44:45;;;;;;;8;5.8;;;;;;;8.18;60.94434;946.8412;;;;
2023/12/19 08:47:10;;;;;;;10.4;6.2;;;;;;;8.56;59.97559;946.8447;;;;
2023/12/19 08:49:36;;;;;;;16.4;9.9;;;;;;;8.53;59.28906;946.7819;;;;
2023/12/19 08:52:04;;;;;;;22.2;13.1;;;;;;;8.59;58.75195;946.6749;;;;
2023/12/19 08:54:29;;;;;;;17.8;11.2;;;;;;;8.77;57.93555;946.6456;;;;
2023/12/19 08:56:56;;;;;;;23.8;14.5;;;;;;;8.96;57.77734;946.5966;;;;
2023/12/19 08:59:21;;;;;;;24.5;14.2;;;;;;;9.11;57.24023;946.5527;;;;
2023/12/19 09:01:46;;;;;;;20.6;12.9;;;;;;;9.32;57.74805;946.5334;;;;
2023/12/19 09:04:11;;;;;;;12.2;8.3;;;;;;;9.83;57.61035;946.5262;;;;
2023/12/19 09:06:38;;;;;;;12.6;8.3;;;;;;;10.04;57.36523;946.5143;;;;
2023/12/19 09:09:04;;;;;;;9;6.4;;;;;;;10.19;55.0918;946.4447;;;;
2023/12/19 09:11:38;;;;;;;6.7;5.1;;;;;;;10.29;56.64355;946.481;;;;
2023/12/19 09:14:06;;;;;;;5.8;4.5;;;;;;;10.27;54.66895;946.4162;;;;
2023/12/19 09:16:32;;;;;;;6.4;4.3;;;;;;;10.42;54.70898;946.4309;;;;
2023/12/19 09:19:01;;;;;;;4.8;3.7;;;;;;;10.8;54.41602;946.4964;;;;
2023/12/19 09:21:31;;;;;;;5.6;4;;;;;;;11.27;53.51367;946.4266;;;;
2023/12/19 09:23:55;;;;;;;4.8;3.7;;;;;;;11.57;51.73145;946.3942;;;;
2023/12/19 09:26:20;;;;;;;5.6;4.4;;;;;;;11.59;50.73828;946.3261;;;;
2023/12/19 09:28:51;;;;;;;5.5;4;;;;;;;11.57;50.79297;946.285;;;;
2023/12/19 09:31:24;;;;;;;4.3;3.6;;;;;;;11.66;51.43262;946.2215;;;;
2023/12/19 09:33:54;;;;;;;5.4;3.6;;;;;;;12.14;50.32031;946.1707;;;;
2023/12/19 09:36:26;;;;;;;4.3;3.9;;;;;;;12.59;48.84766;946.055;;;;
2023/12/19 09:38:51;;;;;;;5.6;3.3;;;;;;;13.07;48.39551;946.0165;;;;
2023/12/19 09:41:16;;;;;;;4.9;3.6;;;;;;;13.43;47.67773;946.0057;;;;
2023/12/19 09:43:42;;;;;;;4.3;3.5;;;;;;;13.16;47.5332;945.8994;;;;
2023/12/19 09:46:16;;;;;;;3.7;2.4;;;;;;;13.54;45.7002;945.8973;;;;
2023/12/19 09:48:41;;;;;;;1.7;1.6;;;;;;;13.67;44.70117;945.866;;;;
2023/12/19 09:51:11;;;;;;;1.5;1.4;;;;;;;13.36;45.66992;945.807;;;;
2023/12/19 09:53:40;;;;;;;1.8;1.5;;;;;;;13.09;46.04297;945.7339;;;;
2023/12/19 09:56:05;;;;;;;1.4;1.3;;;;;;;13.12;46.47168;945.6854;;;;
2023/12/19 09:58:34;;;;;;;3.1;1.6;;;;;;;12.75;46.9707;945.6523;;;;
2023/12/19 10:01:00;;;;;;;23.9;19.3;;;;;;;12.73;48.66797;945.5698;;;;
2023/12/19 10:03:30;;;;;;;12.5;9.3;;;;;;;12.5;49.22656;945.5353;;;;
2023/12/19 10:05:55;;;;;;;4.2;3;;;;;;;12.26;48.90234;945.4614;;;;
2023/12/19 10:08:21;;;;;;;3.4;3.1;;;;;;;12.24;49.31152;945.3669;;;;
2023/12/19 10:10:46;;;;;;;1.6;1.5;;;;;;;12.12;47.85352;945.2817;;;;
2023/12/19 10:13:19;;;;;;;2.5;1.3;;;;;;;12.14;48.46387;945.3251;;;;
2023/12/19 10:15:47;;;;;;;4.3;2.5;;;;;;;11.98;49.77441;945.3304;;;;
2023/12/19 10:18:13;;;;;;;4;2.3;;;;;;;11.83;49.58691;945.2731;;;;
2023/12/19 10:20:38;;;;;;;5.3;3.2;;;;;;;11.53;51.44043;945.1812;;;;
2023/12/19 10:23:05;;;;;;;5.6;3.6;;;;;;;11.39;52.28027;945.0667;;;;
2023/12/19 10:25:31;;;;;;;6.4;3.9;;;;;;;11.33;53.38379;945.0666;;;;
2023/12/19 10:28:01;;;;;;;13.8;5.8;;;;;;;11.48;52.24609;944.9952;;;;
2023/12/19 10:30:30;;;;;;;10.6;6.2;;;;;;;11.34;51.83008;944.9575;;;;
2023/12/19 10:33:01;;;;;;;9.3;6.9;;;;;;;11.3;51.45898;944.9424;;;;
2023/12/19 10:35:28;;;;;;;8.3;5;;;;;;;11.42;51.82813;944.8962;;;;
2023/12/19 10:37:53;;;;;;;5.9;3.7;;;;;;;11.66;51.94824;944.8525;;;;
2023/12/19 10:40:24;;;;;;;9.4;3.5;;;;;;;11.52;51.42773;944.787;;;;
2023/12/19 10:42:52;;;;;;;6.4;3.9;;;;;;;11.29;53.52734;944.7062;;;;
2023/12/19 10:45:22;;;;;;;6.8;3.8;;;;;;;11.15;54.98438;944.7123;;;;
2023/12/19 10:47:47;;;;;;;7.5;3.7;;;;;;;11;54.41797;944.6783;;;;
2023/12/19 10:50:21;;;;;;;12.6;4.5;;;;;;;10.91;54.90918;944.6376;;;;
2023/12/19 10:52:46;;;;;;;9.2;4.1;;;;;;;10.62;54.78125;944.6599;;;;
2023/12/19 10:55:17;;;;;;;8.4;4.4;;;;;;;10.47;54.75;944.6057;;;;
2023/12/19 10:57:44;;;;;;;9.8;4.2;;;;;;;10.29;55.69629;944.475;;;;
2023/12/19 11:00:11;;;;;;;8.7;3.7;;;;;;;10.12;56.55469;944.4106;;;;
2023/12/19 11:02:37;;;;;;;12.7;4.3;;;;;;;10.09;56.71973;944.4058;;;;
2023/12/19 11:05:04;;;;;;;11.9;4.1;;;;;;;9.83;57.37109;944.4056;;;;
2023/12/19 11:07:28;;;;;;;9.5;3.5;;;;;;;9.73;57.00391;944.3237;;;;
2023/12/19 11:10:00;;;;;;;8.1;3.2;;;;;;;9.73;57.74609;944.2736;;;;
2023/12/19 11:12:33;;;;;;;9.5;3.7;;;;;;;9.76;57.63574;944.1852;;;;
2023/12/19 11:14:59;;;;;;;14.4;5.2;;;;;;;9.76;58.12598;944.1454;;;;
2023/12/19 11:17:26;;;;;;;12.4;4.6;;;;;;;9.78;57.23828;944.1472;;;;
2023/12/19 11:19:52;;;;;;;7.2;4.4;;;;;;;9.7;57.37598;944.0883;;;;
2023/12/19 11:22:22;;;;;;;12.5;4.7;;;;;;;9.66;57.97559;944.0405;;;;
2023/12/19 11:24:49;;;;;;;13.2;4.6;;;;;;;9.71;58.2666;944.0273;;;;
2023/12/19 11:27:22;;;;;;;14.1;4.5;;;;;;;9.71;58.96289;944.0314;;;;
2023/12/19 11:29:47;;;;;;;11.8;4.2;;;;;;;9.79;58.45996;943.9814;;;;
2023/12/19 11:32:12;;;;;;;9.4;3.8;;;;;;;9.94;56.49609;943.9672;;;;
2023/12/19 11:34:41;;;;;;;6.4;2.5;;;;;;;10.05;55.60938;943.9913;;;;
2023/12/19 11:37:11;;;;;;;6;2.6;;;;;;;10.08;56.18359;944.0723;;;;
2023/12/19 11:39:43;;;;;;;2.9;2.2;;;;;;;10.1;55.62793;944.0472;;;;
2023/12/19 11:42:09;;;;;;;2.5;2;;;;;;;10.07;55.79492;944.1397;;;;
2023/12/19 11:44:37;;;;;;;2.6;1.9;;;;;;;10.06;57.09277;944.1236;;;;
2023/12/19 11:47:03;;;;;;;3.5;1.9;;;;;;;10.08;57.84766;944.1113;;;;
2023/12/19 11:49:28;;;;;;;2.8;1.9;;;;;;;10.04;58.92676;944.0938;;;;
2023/12/19 11:51:57;;;;;;;2.2;1.4;;;;;;;10.05;57.62793;943.9634;;;;
2023/12/19 11:54:19;;;;;;;2.6;1.5;;;;;;;10.09;55.71777;943.9611;;;;
2023/12/19 11:56:51;;;;;;;2.5;1.6;;;;;;;9.86;54.54688;943.8638;;;;
2023/12/19 11:59:16;;;;;;;2.1;1.5;;;;;;;9.9;55.86328;943.8408;;;;
2023/12/19 12:01:47;;;;;;;1.5;1.3;;;;;;;9.98;56.11328;943.8328;;;;
2023/12/19 12:04:13;;;;;;;2.5;1.3;;;;;;;9.98;56.08008;943.8679;;;;
2023/12/19 12:06:38;;;;;;;1.5;1.4;;;;;;;10.04;55.88184;943.75;;;;
2023/12/19 12:09:10;;;;;;;1.1;1;;;;;;;10.11;56.09473;943.7505;;;;
2023/12/19 12:11:34;;;;;;;2;1.1;;;;;;;10.16;54.83594;943.7117;;;;
2023/12/19 12:14:04;;;;;;;9.8;2.2;;;;;;;10.19;56.28906;943.7427;;;;
2023/12/19 12:16:30;;;;;;;7.1;2.2;;;;;;;10.22;54.9707;943.7137;;;;
2023/12/19 12:19:04;;;;;;;6.4;3.1;;;;;;;10.18;55.85449;943.6828;;;;
2023/12/19 12:21:35;;;;;;;6.3;3.2;;;;;;;9.96;56.60254;943.7148;;;;
2023/12/19 12:24:10;;;;;;;4.9;2.6;;;;;;;9.87;56.94336;943.6931;;;;
2023/12/19 12:26:35;;;;;;;4.9;2.8;;;;;;;9.88;57.27539;943.663;;;;
2023/12/19 12:29:05;;;;;;;7.3;3;;;;;;;9.87;57.01172;943.6476;;;;
2023/12/19 12:31:30;;;;;;;6.6;3.1;;;;;;;9.83;55.94629;943.6357;;;;
2023/12/19 12:33:57;;;;;;;5;2.9;;;;;;;9.94;55.40137;943.5503;;;;
2023/12/19 12:36:24;;;;;;;6.2;2.7;;;;;;;10.07;55.37305;943.5804;;;;
2023/12/19 12:38:52;;;;;;;5.7;3.2;;;;;;;9.93;56.03906;943.5081;;;;
2023/12/19 12:41:17;;;;;;;6.7;3.1;;;;;;;9.8;55.73633;943.455;;;;
2023/12/19 12:43:49;;;;;;;4.8;3.1;;;;;;;9.74;55.3418;943.4665;;;;
2023/12/19 12:46:09;;;;;;;5.6;2.9;;;;;;;9.72;55.71582;943.4573;;;;
2023/12/19 12:48:35;;;;;;;6.4;2.4;;;;;;;9.66;55.81055;943.4673;;;;
2023/12/19 12:51:02;;;;;;;7.3;2.8;;;;;;;9.54;55.81738;943.4017;;;;
2023/12/19 12:53:27;;;;;;;5.3;2.7;;;;;;;9.58;55.80078;943.3652;;;;
2023/12/19 12:55:55;;;;;;;8.8;4.3;;;;;;;9.6;55.75586;943.3631;;;;
2023/12/19 12:58:21;;;;;;;7;3.5;;;;;;;9.62;55.15527;943.2939;;;;
2023/12/19 13:00:47;;;;;;;5.2;2.9;;;;;;;9.54;55.62402;943.2687;;;;
2023/12/19 13:03:14;;;;;;;4.2;2.3;;;;;;;9.49;55.45703;943.1961;;;;
2023/12/19 13:05:42;;;;;;;4.6;2.4;;;;;;;9.38;55.91113;943.1635;;;;
2023/12/19 13:08:11;;;;;;;9.6;3.2;;;;;;;9.31;56.82422;943.0364;;;;
2023/12/19 13:10:40;;;;;;;7.3;2.8;;;;;;;9.34;56.58789;943.0266;;;;
2023/12/19 13:13:10;;;;;;;9;2.3;;;;;;;9.07;57.52148;943.0388;;;;
2023/12/19 13:15:39;;;;;;;6.5;2.7;;;;;;;8.97;58.34863;943.0377;;;;
2023/12/19 13:18:08;;;;;;;7.5;3.4;;;;;;;8.92;59.12695;942.9451;;;;
2023/12/19 13:20:37;;;;;;;5.7;3.8;;;;;;;8.81;59.51074;942.8197;;;;
2023/12/19 13:23:06;;;;;;;5.9;3.6;;;;;;;8.71;60.26953;942.7859;;;;
2023/12/19 13:25:30;;;;;;;8.7;4.2;;;;;;;8.67;60.36621;942.674;;;;
2023/12/19 13:28:01;;;;;;;8.1;4.6;;;;;;;8.66;60.33008;942.6926;;;;
2023/12/19 13:30:25;;;;;;;4.3;2.7;;;;;;;8.66;59.19434;942.5078;;;;
2023/12/19 13:32:56;;;;;;;8.4;2.4;;;;;;;8.55;59.35938;942.5374;;;;
2023/12/19 13:35:24;;;;;;;3.4;1.7;;;;;;;8.53;59.33496;942.4766;;;;
2023/12/19 13:37:57;;;;;;;4.6;2.2;;;;;;;8.59;59.24121;942.3756;;;;
2023/12/19 13:40:22;;;;;;;5.4;2.7;;;;;;;8.74;58.1709;942.2874;;;;
2023/12/19 13:42:54;;;;;;;4.2;2.7;;;;;;;8.78;57.81152;942.2922;;;;
2023/12/19 13:45:24;;;;;;;5.7;3.6;;;;;;;8.74;58.88672;942.1578;;;;
2023/12/19 13:47:54;;;;;;;10.1;4.4;;;;;;;8.68;59.00293;942.163;;;;
2023/12/19 13:50:25;;;;;;;7.5;4.5;;;;;;;8.74;58.8418;942.0912;;;;
2023/12/19 13:52:54;;;;;;;10.3;4.4;;;;;;;8.51;60.07031;942.1078;;;;
2023/12/19 13:55:19;;;;;;;6.8;3.8;;;;;;;8.29;61.09668;942.0528;;;;
2023/12/19 13:57:47;;;;;;;5.5;3.1;;;;;;;8.21;61.57324;941.9709;;;;
2023/12/19 14:00:15;;;;;;;3.8;2.5;;;;;;;8.13;61.02832;941.9472;;;;
2023/12/19 14:02:39;;;;;;;4.4;3;;;;;;;8.05;61.44824;941.839;;;;
2023/12/19 14:05:11;;;;;;;6.9;3.1;;;;;;;7.84;62.45117;941.8328;;;;
2023/12/19 14:07:41;;;;;;;6.7;4.2;;;;;;;7.68;63.65234;941.7999;;;;
2023/12/19 14:10:10;;;;;;;6.9;4.1;;;;;;;7.51;64.5;941.7;;;;
2023/12/19 14:12:39;;;;;;;7.1;4.6;;;;;;;7.31;65.25195;941.7158;;;;
2023/12/19 14:15:14;;;;;;;10.5;6.5;;;;;;;7.18;64.98242;941.7134;;;;
2023/12/19 14:17:44;;;;;;;7.3;4.8;;;;;;;7.1;64.74512;941.7241;;;;
2023/12/19 14:20:15;;;;;;;8.7;5.4;;;;;;;6.98;65.04395;941.7346;;;;
2023/12/19 14:22:43;;;;;;;8.5;6.2;;;;;;;6.9;65.94922;941.7164;;;;
2023/12/19 14:25:11;;;;;;;10.6;6.6;;;;;;;6.88;67.53125;941.7658;;;;
2023/12/19 14:27:41;;;;;;;15;7.5;;;;;;;6.8;68.24316;941.7473;;;;
2023/12/19 14:30:19;;;;;;;11.9;6.9;;;;;;;6.71;68.87305;941.7835;;;;
2023/12/19 14:32:43;;;;;;;12.3;7.6;;;;;;;6.64;69.3125;941.7505;;;;
2023/12/19 14:35:11;;;;;;;12.2;7.9;;;;;;;6.56;69.83301;941.8848;;;;
2023/12/19 14:37:37;;;;;;;13.2;8;;;;;;;6.52;70.3457;941.8716;;;;
2023/12/19 14:40:03;;;;;;;12.1;6.9;;;;;;;6.3;71.30664;941.8401;;;;
2023/12/19 14:42:36;;;;;;;11.8;6.9;;;;;;;6.35;71.41602;941.8109;;;;
2023/12/19 14:45:01;;;;;;;13.1;8.5;;;;;;;6.31;72.18848;941.8065;;;;
2023/12/19 14:47:28;;;;;;;10.7;6.9;;;;;;;6.23;72.9209;941.7661;;;;
2023/12/19 14:49:52;;;;;;;9.5;6.9;;;;;;;6.23;73.58789;941.7028;;;;
2023/12/19 14:52:17;;;;;;;10.9;6.8;;;;;;;6.08;74.26172;941.6724;;;;
2023/12/19 14:54:42;;;;;;;8.4;5.5;;;;;;;6.24;72.12012;941.6729;;;;
2023/12/19 14:57:07;;;;;;;9.1;6;;;;;;;6.23;72.4248;941.6594;;;;
2023/12/19 14:59:32;;;;;;;11.8;6.9;;;;;;;6.17;73.14746;941.7795;;;;
2023/12/19 15:01:59;;;;;;;12.2;7.2;;;;;;;6.17;73.65918;941.7805;;;;
2023/12/19 15:04:32;;;;;;;14.4;7.8;;;;;;;6.03;74.8418;941.7302;;;;
2023/12/19 15:07:04;;;;;;;10.8;6.8;;;;;;;6.02;74.79492;941.7375;;;;
2023/12/19 15:09:29;;;;;;;8.7;5.3;;;;;;;5.96;75.04395;941.6525;;;;
2023/12/19 15:11:58;;;;;;;11.9;6.6;;;;;;;5.89;74.88477;941.6451;;;;
2023/12/19 15:14:24;;;;;;;11.9;7.3;;;;;;;5.78;75.41895;941.6642;;;;
2023/12/19 15:16:50;;;;;;;13;7.4;;;;;;;5.75;75.37988;941.5875;;;;
2023/12/19 15:19:15;;;;;;;20.7;12.9;;;;;;;5.76;74.89746;941.6258;;;;
2023/12/19 15:21:42;;;;;;;34.6;20.6;;;;;;;5.68;74.48828;941.5773;;;;
2023/12/19 15:24:07;;;;;;;36.6;21.7;;;;;;;5.6;75.36621;941.6305;;;;
2023/12/19 15:26:32;;;;;;;34.5;20.3;;;;;;;5.57;75.99121;941.6839;;;;
2023/12/19 15:29:06;;;;;;;31.5;18.8;;;;;;;5.49;75.8418;941.6078;;;;
2023/12/19 15:31:36;;;;;;;29;18.4;;;;;;;5.5;75.75293;941.6128;;;;
2023/12/19 15:34:05;;;;;;;28.3;18;;;;;;;5.52;75.49707;941.5731;;;;
2023/12/19 15:36:31;;;;;;;30.1;17.9;;;;;;;5.47;75.82715;941.5541;;;;
2023/12/19 15:38:56;;;;;;;28.1;17.8;;;;;;;5.39;75.9707;941.5275;;;;
2023/12/19 15:41:21;;;;;;;31.2;18.9;;;;;;;5.25;76.47656;941.589;;;;
2023/12/19 15:43:46;;;;;;;29.6;18.6;;;;;;;5.17;76.15918;941.579;;;;
2023/12/19 15:46:14;;;;;;;30.2;18.3;;;;;;;5.07;76.11621;941.625;;;;